Time;durP1;ratioP1;P1;durP2;ratioP2;P2;SDS_P1;SDS_P2;PMS_P1;PMS_P2;Temp;Humidity;BMP_temperature;BMP_pressure;BME280_temperature;BME280_humidity;BME280_pressure;Samples;Min_cycle;Max_cycle;Signal;HPM_P1;HPM_P2
2022/11/18 00:00:48;;;;;;;0.65;0.65;;;3.20;99.90;;;;;;4391756;32;20066;-78
2022/11/18 00:03:13;;;;;;;0.85;0.85;;;3.20;99.90;;;;;;4387000;32;20145;-76
2022/11/18 00:05:39;;;;;;;0.70;0.70;;;3.30;99.90;;;;;;4376980;32;20095;-76
2022/11/18 00:08:05;;;;;;;1.12;1.08;;;3.20;99.90;;;;;;4391029;32;20132;-79
2022/11/18 00:10:30;;;;;;;0.93;0.93;;;3.10;99.90;;;;;;4396508;32;20098;-76
2022/11/18 00:14:27;;;;;;;0.57;0.57;;;3.30;99.90;;;;;;4396979;32;20075;-78
2022/11/18 00:15:42;;;;;;;1.27;1.12;;;3.20;99.90;;;;;;4384046;32;20097;-78
2022/11/18 00:18:07;;;;;;;2.05;1.67;;;3.20;99.90;;;;;;4392753;32;20544;-77
2022/11/18 00:20:34;;;;;;;0.45;0.45;;;3.20;99.90;;;;;;4394115;32;20102;-77
2022/11/18 00:22:59;;;;;;;0.60;0.60;;;3.10;99.90;;;;;;4395524;32;20082;-78
2022/11/18 00:25:26;;;;;;;0.95;0.95;;;3.00;99.90;;;;;;4398389;32;20520;-77
2022/11/18 00:27:53;;;;;;;1.00;1.00;;;3.00;99.90;;;;;;4396161;32;20093;-77
2022/11/18 00:30:19;;;;;;;2.30;1.87;;;3.00;99.90;;;;;;4393748;32;20124;-77
2022/11/18 00:32:44;;;;;;;2.72;1.00;;;3.00;99.90;;;;;;4393293;32;20074;-77
2022/11/18 00:35:10;;;;;;;1.52;0.73;;;3.00;99.90;;;;;;4378551;32;20147;-77
2022/11/18 00:37:35;;;;;;;1.20;1.02;;;3.10;99.90;;;;;;4388516;32;20090;-78
2022/11/18 00:40:01;;;;;;;3.35;1.55;;;3.00;99.90;;;;;;4397837;32;20089;-77
2022/11/18 00:42:58;;;;;;;8.95;1.12;;;3.00;99.90;;;;;;4395953;32;20069;-79
2022/11/18 00:45:12;;;;;;;1.23;1.23;;;3.00;99.90;;;;;;4387227;32;20074;-78
2022/11/18 00:47:37;;;;;;;1.10;1.10;;;3.00;99.90;;;;;;4396834;32;20089;-79
2022/11/18 00:50:03;;;;;;;2.25;1.10;;;3.00;99.90;;;;;;4396775;32;20075;-78
2022/11/18 00:52:31;;;;;;;0.50;0.50;;;3.00;99.90;;;;;;4398507;32;20094;-78
2022/11/18 00:54:57;;;;;;;2.58;1.85;;;2.90;99.90;;;;;;4399354;32;20098;-78
2022/11/18 00:57:23;;;;;;;0.82;0.82;;;2.90;99.90;;;;;;4397141;32;20455;-78
2022/11/18 00:59:49;;;;;;;0.73;0.73;;;2.90;99.90;;;;;;4379651;32;20159;-77
2022/11/18 01:02:14;;;;;;;1.35;1.23;;;2.90;99.90;;;;;;4394114;32;20533;-77
2022/11/18 01:04:40;;;;;;;0.77;0.77;;;2.90;99.90;;;;;;4377500;32;20430;-77
2022/11/18 01:07:05;;;;;;;0.50;0.50;;;2.90;99.90;;;;;;4382603;32;20069;-78
2022/11/18 01:09:31;;;;;;;0.95;0.95;;;2.90;99.90;;;;;;4394076;32;20103;-78
2022/11/18 01:13:28;;;;;;;1.48;1.37;;;3.00;99.90;;;;;;4391088;32;20099;-79
2022/11/18 01:14:42;;;;;;;0.65;0.65;;;3.00;99.90;;;;;;4383186;32;20106;-77
2022/11/18 01:17:07;;;;;;;68.20;3.22;;;3.00;99.90;;;;;;4394694;32;20097;-76
2022/11/18 01:19:33;;;;;;;1.02;0.95;;;3.00;99.90;;;;;;4393181;32;20117;-76
2022/11/18 01:22:01;;;;;;;2.05;1.00;;;2.90;99.90;;;;;;4392991;32;20130;-78
2022/11/18 01:24:28;;;;;;;2.28;0.90;;;2.90;99.90;;;;;;4390786;32;20086;-77
2022/11/18 01:26:53;;;;;;;2.70;1.27;;;3.00;99.90;;;;;;4393216;32;20066;-77
2022/11/18 01:29:19;;;;;;;0.77;0.77;;;3.00;99.90;;;;;;4394398;32;20886;-77
2022/11/18 01:31:44;;;;;;;1.35;1.25;;;3.00;99.90;;;;;;4393193;32;20497;-77
2022/11/18 01:34:10;;;;;;;1.95;1.33;;;2.90;99.90;;;;;;4379616;32;20133;-77
2022/11/18 01:36:36;;;;;;;1.02;0.95;;;3.00;99.90;;;;;;4376579;32;20069;-77
2022/11/18 01:39:01;;;;;;;0.73;0.73;;;3.10;99.90;;;;;;4393447;32;20183;-78
2022/11/18 01:41:27;;;;;;;1.58;1.48;;;2.90;99.90;;;;;;4393079;32;20062;-76
2022/11/18 01:43:57;;;;;;;5.78;2.55;;;2.90;99.90;;;;;;4390977;32;20093;-76
2022/11/18 01:46:26;;;;;;;1.25;1.23;;;2.80;99.90;;;;;;4393553;32;20062;-78
2022/11/18 01:48:56;;;;;;;0.98;0.98;;;2.80;99.90;;;;;;4393424;32;20217;-78
2022/11/18 01:51:27;;;;;;;1.25;1.15;;;2.80;99.90;;;;;;4390930;32;20121;-78
2022/11/18 01:54:00;;;;;;;0.82;0.82;;;2.80;99.90;;;;;;4391958;32;20348;-78
2022/11/18 01:56:32;;;;;;;0.85;0.85;;;2.80;99.90;;;;;;4395537;32;20083;-78
2022/11/18 01:59:03;;;;;;;1.12;1.08;;;2.70;99.90;;;;;;4394316;32;20074;-77
2022/11/18 02:01:29;;;;;;;0.40;0.40;;;2.70;99.90;;;;;;4393595;32;20106;-76
2022/11/18 02:03:54;;;;;;;0.62;0.62;;;2.70;99.90;;;;;;4377245;32;20102;-77
2022/11/18 02:06:20;;;;;;;0.93;0.85;;;2.70;99.90;;;;;;4375393;32;20128;-76
2022/11/18 02:08:46;;;;;;;1.83;1.37;;;2.70;99.90;;;;;;4393089;32;20369;-76
2022/11/18 02:12:14;;;;;;;0.40;0.40;;;2.70;99.90;;;;;;4393689;32;20534;-77
2022/11/18 02:14:05;;;;;;;3.47;1.10;;;2.70;99.90;;;;;;4386053;32;20122;-77
2022/11/18 02:16:59;;;;;;;1.30;1.05;;;2.60;99.90;;;;;;4394108;32;20544;-77
2022/11/18 02:19:37;;;;;;;0.90;0.90;;;2.60;99.90;;;;;;4380277;32;20073;-77
2022/11/18 02:22:22;;;;;;;0.93;0.93;;;2.60;99.90;;;;;;4392411;32;20533;-77
2022/11/18 02:25:24;;;;;;;0.98;0.98;;;2.60;99.90;;;;;;4393060;32;20365;-78
2022/11/18 02:28:29;;;;;;;3.12;1.40;;;2.50;99.90;;;;;;4380782;32;20110;-77
2022/11/18 02:31:04;;;;;;;0.70;0.70;;;2.50;99.90;;;;;;4385214;32;21144;-78
2022/11/18 02:33:54;;;;;;;0.50;0.50;;;2.50;99.90;;;;;;4389261;32;20090;-75
2022/11/18 02:36:27;;;;;;;1.50;1.30;;;2.40;99.90;;;;;;4369388;32;20066;-76
2022/11/18 02:39:02;;;;;;;0.88;0.85;;;2.40;99.90;;;;;;4393301;32;20107;-77
2022/11/18 02:41:31;;;;;;;0.90;0.90;;;2.40;99.90;;;;;;4393333;32;20082;-77
2022/11/18 02:44:03;;;;;;;15.32;1.25;;;2.40;99.90;;;;;;4393455;32;20102;-76
2022/11/18 02:46:32;;;;;;;1.10;1.10;;;2.40;99.90;;;;;;4394199;32;20567;-76
2022/11/18 02:49:00;;;;;;;0.50;0.50;;;2.30;99.90;;;;;;4396007;32;20073;-77
2022/11/18 02:51:29;;;;;;;2.15;1.62;;;2.30;99.90;;;;;;4393973;32;20070;-77
2022/11/18 02:53:59;;;;;;;1.25;1.20;;;2.20;99.90;;;;;;4393813;32;20532;-77
2022/11/18 02:56:26;;;;;;;0.50;0.50;;;2.30;99.90;;;;;;4388979;32;20078;-78
2022/11/18 02:58:52;;;;;;;0.90;0.90;;;2.20;99.90;;;;;;4392887;32;20102;-77
2022/11/18 03:01:21;;;;;;;0.47;0.45;;;2.30;99.90;;;;;;4392594;32;20538;-77
2022/11/18 03:03:46;;;;;;;0.70;0.70;;;2.30;99.90;;;;;;4381925;32;20423;-77
2022/11/18 03:06:33;;;;;;;0.60;0.60;;;2.20;99.90;;;;;;4379352;32;20098;-76
2022/11/18 03:09:13;;;;;;;0.75;0.75;;;2.00;99.90;;;;;;4394286;32;20102;-77
2022/11/18 03:11:55;;;;;;;4.12;1.35;;;2.10;99.90;;;;;;4393964;32;20604;-77
2022/11/18 03:15:00;;;;;;;1.25;1.15;;;2.00;99.90;;;;;;4379777;32;20202;-77
2022/11/18 03:17:53;;;;;;;0.80;0.80;;;2.00;99.90;;;;;;4382342;32;20118;-76
2022/11/18 03:20:24;;;;;;;0.70;0.70;;;2.00;99.90;;;;;;4381403;32;20577;-77
2022/11/18 03:23:06;;;;;;;1.10;1.10;;;1.90;99.90;;;;;;4395315;32;20085;-78
2022/11/18 03:25:40;;;;;;;2.72;1.70;;;2.10;99.90;;;;;;4392413;32;20081;-76
2022/11/18 03:28:31;;;;;;;0.93;0.93;;;2.10;99.90;;;;;;4393731;32;20081;-78
2022/11/18 03:31:19;;;;;;;0.77;0.77;;;2.10;99.90;;;;;;4382757;32;20510;-76
2022/11/18 03:33:50;;;;;;;1.42;1.33;;;2.10;99.90;;;;;;4384417;32;20098;-75
2022/11/18 03:36:22;;;;;;;1.10;1.00;;;2.10;99.90;;;;;;4377606;32;20061;-76
2022/11/18 03:38:51;;;;;;;0.55;0.55;;;2.20;99.90;;;;;;4394114;32;20086;-78
2022/11/18 03:41:19;;;;;;;0.68;0.68;;;2.20;99.90;;;;;;4391364;32;20082;-76
2022/11/18 03:44:09;;;;;;;0.60;0.60;;;2.10;99.90;;;;;;4394148;32;20066;-77
2022/11/18 03:46:42;;;;;;;0.68;0.68;;;2.10;99.90;;;;;;4383276;32;20082;-77
2022/11/18 03:49:12;;;;;;;1.95;1.48;;;2.10;99.90;;;;;;4394150;32;20094;-76
2022/11/18 03:51:45;;;;;;;1.37;1.25;;;2.20;99.90;;;;;;4393812;32;20074;-77
2022/11/18 03:54:15;;;;;;;0.40;0.40;;;2.10;99.90;;;;;;4394658;32;20129;-76
2022/11/18 03:56:46;;;;;;;3.12;1.08;;;2.00;99.90;;;;;;4393023;32;20117;-76
2022/11/18 03:59:21;;;;;;;0.40;0.40;;;2.10;99.90;;;;;;4394002;32;20560;-76
2022/11/18 04:01:54;;;;;;;1.00;0.95;;;2.00;99.90;;;;;;4392306;32;20087;-77
2022/11/18 04:04:21;;;;;;;2.60;1.05;;;2.00;99.90;;;;;;4381547;32;20110;-76
2022/11/18 04:06:53;;;;;;;0.80;0.80;;;1.90;99.90;;;;;;4379394;32;20224;-76
2022/11/18 04:09:24;;;;;;;4.28;2.25;;;1.90;99.90;;;;;;4394310;32;20101;-77
2022/11/18 04:12:08;;;;;;;;;;;1.90;99.90;;;;;;4393372;32;20576;-77
2022/11/18 04:14:37;;;;;;;2.00;1.27;;;2.00;99.90;;;;;;4393954;32;19981;-76
2022/11/18 04:17:12;;;;;;;0.80;0.80;;;1.90;99.90;;;;;;4394933;32;20055;-78
2022/11/18 04:19:38;;;;;;;0.90;0.90;;;1.90;99.90;;;;;;4393838;32;20821;-77
2022/11/18 04:22:04;;;;;;;0.80;0.80;;;1.80;99.90;;;;;;4392423;32;20062;-77
2022/11/18 04:24:29;;;;;;;0.93;0.93;;;1.80;99.90;;;;;;4391778;32;20114;-76
2022/11/18 04:26:55;;;;;;;0.80;0.80;;;1.80;99.90;;;;;;4393469;32;20069;-77
2022/11/18 04:29:20;;;;;;;0.62;0.62;;;1.90;99.90;;;;;;4393670;32;20074;-77
2022/11/18 04:31:46;;;;;;;0.68;0.68;;;1.80;99.90;;;;;;4391871;32;20453;-76
2022/11/18 04:34:11;;;;;;;0.40;0.40;;;1.80;99.90;;;;;;4379909;32;20111;-76
2022/11/18 04:36:38;;;;;;;14.55;2.22;;;1.80;99.90;;;;;;4378022;32;20086;-76
2022/11/18 04:39:04;;;;;;;0.90;0.90;;;1.70;99.90;;;;;;4393943;32;20073;-76
2022/11/18 04:42:01;;;;;;;1.62;1.48;;;1.70;99.90;;;;;;4394509;32;20585;-77
2022/11/18 04:44:14;;;;;;;0.98;0.95;;;1.70;99.90;;;;;;4383342;32;20095;-76
2022/11/18 04:46:41;;;;;;;0.70;0.70;;;1.70;99.90;;;;;;4394681;32;20518;-77
2022/11/18 04:49:09;;;;;;;0.50;0.50;;;1.60;99.90;;;;;;4394153;32;20640;-74
2022/11/18 04:51:35;;;;;;;4.22;1.87;;;1.60;99.90;;;;;;4391410;32;20086;-77
2022/11/18 04:54:01;;;;;;;0.85;0.85;;;1.60;99.90;;;;;;4396142;32;20508;-78
2022/11/18 04:56:27;;;;;;;0.98;0.98;;;1.60;99.90;;;;;;4401726;32;20403;-76
2022/11/18 04:58:52;;;;;;;0.52;0.52;;;1.50;99.90;;;;;;4398327;32;20082;-77
2022/11/18 05:01:18;;;;;;;0.98;0.95;;;1.50;99.90;;;;;;4397270;32;20364;-78
2022/11/18 05:03:43;;;;;;;0.55;0.55;;;1.60;99.90;;;;;;4384149;32;20175;-77
2022/11/18 05:06:09;;;;;;;0.82;0.82;;;1.60;99.90;;;;;;4377211;32;20110;-75
2022/11/18 05:08:34;;;;;;;1.00;1.00;;;1.60;99.90;;;;;;4391359;32;20132;-78
2022/11/18 05:13:51;;;;;;;0.55;0.55;;;1.60;99.90;;;;;;4384000;32;20177;-78
2022/11/18 05:16:17;;;;;;;4.68;1.67;;;1.50;99.90;;;;;;4392815;32;20651;-77
2022/11/18 05:18:43;;;;;;;1.02;0.98;;;1.50;99.90;;;;;;4391727;32;20139;-77
2022/11/18 05:21:08;;;;;;;2.87;1.33;;;1.50;99.90;;;;;;4385639;32;20090;-77
2022/11/18 05:23:34;;;;;;;0.60;0.60;;;1.50;99.90;;;;;;4354424;32;20078;-77
2022/11/18 05:26:05;;;;;;;1.05;0.95;;;1.50;99.90;;;;;;4363575;32;20080;-75
2022/11/18 05:28:31;;;;;;;0.60;0.60;;;1.40;99.90;;;;;;4353074;32;20582;-76
2022/11/18 05:30:56;;;;;;;0.98;0.90;;;1.40;99.90;;;;;;4359910;32;20078;-76
2022/11/18 05:33:21;;;;;;;0.90;0.90;;;1.40;99.90;;;;;;4345355;32;20386;-76
2022/11/18 05:35:47;;;;;;;2.33;1.73;;;1.40;99.90;;;;;;4346586;32;20384;-77
2022/11/18 05:38:12;;;;;;;2.60;2.22;;;1.50;99.90;;;;;;4380285;32;20129;-77
2022/11/18 05:40:40;;;;;;;0.60;0.60;;;1.50;99.90;;;;;;4392009;32;20526;-77
2022/11/18 05:43:10;;;;;;;0.93;0.93;;;1.50;99.90;;;;;;4390436;32;20085;-76
2022/11/18 05:45:37;;;;;;;1.58;1.48;;;1.40;99.90;;;;;;4392668;32;20170;-78
2022/11/18 05:48:04;;;;;;;1.02;1.02;;;1.40;99.90;;;;;;4390649;32;20078;-76
2022/11/18 05:50:30;;;;;;;0.75;0.75;;;1.40;99.90;;;;;;4391975;32;21141;-76
2022/11/18 05:52:57;;;;;;;2.90;1.70;;;1.50;99.90;;;;;;4364867;32;20541;-76
2022/11/18 05:55:27;;;;;;;2.28;1.42;;;1.50;99.90;;;;;;4359436;32;20745;-76
2022/11/18 05:57:53;;;;;;;0.98;0.98;;;1.50;99.90;;;;;;4379133;32;20097;-76
2022/11/18 06:00:18;;;;;;;1.52;1.42;;;1.50;99.90;;;;;;4392588;32;20078;-76
2022/11/18 06:02:47;;;;;;;0.85;0.85;;;1.50;99.90;;;;;;4377413;32;20437;-75
2022/11/18 06:05:13;;;;;;;0.70;0.70;;;1.60;99.90;;;;;;4349625;32;20086;-77
2022/11/18 06:07:44;;;;;;;3.33;1.50;;;1.50;99.90;;;;;;4352878;32;20174;-77
2022/11/18 06:10:15;;;;;;;0.93;0.93;;;1.50;99.90;;;;;;4355131;32;20099;-76
2022/11/18 06:12:44;;;;;;;1.02;1.02;;;1.50;99.90;;;;;;4352305;32;20447;-76
2022/11/18 06:15:15;;;;;;;1.25;1.15;;;1.50;99.90;;;;;;4350706;32;21028;-77
2022/11/18 06:17:49;;;;;;;4.57;0.80;;;1.50;99.90;;;;;;4339386;32;20066;-77
2022/11/18 06:20:18;;;;;;;0.68;0.68;;;1.50;99.90;;;;;;4309439;32;20103;-76
2022/11/18 06:22:43;;;;;;;1.23;1.10;;;1.40;99.90;;;;;;4316738;32;20271;-75
2022/11/18 06:25:09;;;;;;;0.62;0.62;;;1.50;99.90;;;;;;4296785;32;20321;-76
2022/11/18 06:27:35;;;;;;;0.60;0.60;;;1.50;99.90;;;;;;4324344;32;21126;-76
2022/11/18 06:30:00;;;;;;;1.55;1.45;;;1.60;99.90;;;;;;4289754;32;20284;-76
2022/11/18 06:32:26;;;;;;;2.83;1.95;;;1.60;99.90;;;;;;4276759;32;20232;-76
2022/11/18 06:34:51;;;;;;;0.80;0.80;;;1.60;99.90;;;;;;4307670;32;20235;-75
2022/11/18 06:37:19;;;;;;;0.62;0.62;;;1.50;99.90;;;;;;4319513;32;20178;-76
2022/11/18 06:39:45;;;;;;;0.73;0.73;;;1.60;99.90;;;;;;4317406;32;20373;-76
2022/11/18 06:43:37;;;;;;;1.05;1.05;;;1.50;99.90;;;;;;4311992;32;20251;-76
2022/11/18 06:44:56;;;;;;;2.55;1.15;;;1.50;99.90;;;;;;4328556;32;20571;-75
2022/11/18 06:47:22;;;;;;;0.50;0.50;;;1.40;99.90;;;;;;4353096;32;20819;-77
2022/11/18 06:49:47;;;;;;;0.85;0.85;;;1.40;99.90;;;;;;4344000;32;20840;-76
2022/11/18 06:52:13;;;;;;;0.73;0.73;;;1.50;99.90;;;;;;4351733;32;20123;-75
2022/11/18 06:54:38;;;;;;;1.27;1.00;;;1.40;99.90;;;;;;4355549;32;20098;-78
2022/11/18 06:57:04;;;;;;;1.75;1.45;;;1.30;99.90;;;;;;4362036;32;20114;-75
2022/11/18 06:59:31;;;;;;;0.80;0.80;;;1.40;99.90;;;;;;4347951;32;20330;-77
2022/11/18 07:01:56;;;;;;;0.75;0.75;;;1.30;99.90;;;;;;4323689;32;21702;-78
2022/11/18 07:04:23;;;;;;;3.30;1.48;;;1.30;99.90;;;;;;4311645;32;20833;-77
2022/11/18 07:06:48;;;;;;;0.93;0.75;;;1.40;99.90;;;;;;4341567;32;20222;-75
2022/11/18 07:09:14;;;;;;;0.50;0.50;;;1.30;99.90;;;;;;4359247;32;20087;-76
2022/11/18 07:11:40;;;;;;;0.62;0.62;;;1.20;99.90;;;;;;4355232;32;20501;-76
2022/11/18 07:14:07;;;;;;;3.08;1.52;;;1.20;99.90;;;;;;4352215;32;20089;-77
2022/11/18 07:16:33;;;;;;;1.23;0.85;;;1.20;99.90;;;;;;4352969;32;20553;-77
2022/11/18 07:19:00;;;;;;;0.43;0.43;;;1.20;99.90;;;;;;4344545;32;20117;-76
2022/11/18 07:21:28;;;;;;;1.27;1.20;;;1.10;99.90;;;;;;4358718;32;20421;-75
2022/11/18 07:23:54;;;;;;;1.05;0.95;;;1.10;99.90;;;;;;4349824;32;20086;-76
2022/11/18 07:26:20;;;;;;;2.28;0.93;;;1.00;99.90;;;;;;4356694;32;20090;-76
2022/11/18 07:28:46;;;;;;;1.05;1.02;;;1.00;99.90;;;;;;4351782;32;20927;-75
2022/11/18 07:31:13;;;;;;;12.57;0.98;;;1.00;99.90;;;;;;4337642;32;106724;-75
2022/11/18 07:33:40;;;;;;;0.70;0.70;;;0.90;99.90;;;;;;4324465;32;20118;-75
2022/11/18 07:36:10;;;;;;;0.85;0.85;;;0.90;99.90;;;;;;4343062;32;20169;-77
2022/11/18 07:38:36;;;;;;;0.90;0.90;;;0.90;99.90;;;;;;4351729;32;20093;-77
2022/11/18 07:41:06;;;;;;;0.40;0.40;;;0.90;99.90;;;;;;4347167;32;20225;-77
2022/11/18 07:43:33;;;;;;;;;;;0.90;99.90;;;;;;4356076;32;20593;-74
2022/11/18 07:46:07;;;;;;;2.62;0.88;;;1.00;99.90;;;;;;4362979;32;19965;-75
2022/11/18 07:48:32;;;;;;;0.62;0.62;;;1.00;99.90;;;;;;4352223;32;20165;-76
2022/11/18 07:51:00;;;;;;;4.43;2.10;;;0.90;99.90;;;;;;4348375;32;20176;-75
2022/11/18 07:53:25;;;;;;;0.77;0.77;;;1.00;99.90;;;;;;4357504;32;20311;-74
2022/11/18 07:55:50;;;;;;;0.75;0.75;;;1.10;99.90;;;;;;4354808;32;20073;-76
2022/11/18 07:58:16;;;;;;;3.67;1.00;;;1.10;99.90;;;;;;4355267;32;20105;-76
2022/11/18 08:00:41;;;;;;;0.45;0.45;;;1.10;99.90;;;;;;4339420;32;20111;-75
2022/11/18 08:03:07;;;;;;;0.40;0.40;;;1.10;99.90;;;;;;4330713;32;20338;-75
2022/11/18 08:05:32;;;;;;;0.40;0.40;;;1.10;99.90;;;;;;4336923;32;20255;-76
2022/11/18 08:07:58;;;;;;;1.12;0.80;;;1.20;99.90;;;;;;4356221;32;20117;-75
2022/11/18 08:10:23;;;;;;;0.73;0.73;;;1.20;99.90;;;;;;4350377;32;20123;-75
2022/11/18 08:12:49;;;;;;;0.95;0.95;;;1.10;99.90;;;;;;4352309;32;20191;-76
2022/11/18 08:15:14;;;;;;;0.70;0.70;;;1.10;99.90;;;;;;4354141;32;20094;-75
2022/11/18 08:17:41;;;;;;;0.80;0.80;;;1.10;99.90;;;;;;4344719;32;21185;-75
2022/11/18 08:20:07;;;;;;;3.72;2.05;;;1.10;99.90;;;;;;4333167;32;20126;-75
2022/11/18 08:22:32;;;;;;;1.05;0.75;;;1.10;99.90;;;;;;4348485;32;20090;-76
2022/11/18 08:24:58;;;;;;;4.85;1.25;;;1.20;99.90;;;;;;4353270;32;20438;-76
2022/11/18 08:27:23;;;;;;;0.62;0.62;;;1.10;99.90;;;;;;4352614;32;20475;-76
2022/11/18 08:29:49;;;;;;;0.65;0.65;;;1.20;99.90;;;;;;4324300;32;20630;-76
2022/11/18 08:32:14;;;;;;;0.77;0.77;;;1.40;99.90;;;;;;4317682;32;20358;-77
2022/11/18 08:34:40;;;;;;;0.70;0.70;;;1.40;99.90;;;;;;4313441;32;20101;-76
2022/11/18 08:37:05;;;;;;;1.73;1.60;;;1.40;99.90;;;;;;4343322;32;20130;-76
2022/11/18 08:39:30;;;;;;;0.70;0.70;;;1.50;99.90;;;;;;4352514;32;20687;-77
2022/11/18 08:41:57;;;;;;;1.42;1.33;;;1.50;99.90;;;;;;4358149;32;20168;-76
2022/11/18 08:44:22;;;;;;;0.85;0.85;;;1.50;99.90;;;;;;4368726;32;20078;-77
2022/11/18 08:46:48;;;;;;;0.55;0.55;;;1.50;99.90;;;;;;4355725;32;20312;-75
2022/11/18 08:49:14;;;;;;;0.90;0.70;;;1.40;99.90;;;;;;4334684;32;20101;-76
2022/11/18 08:51:39;;;;;;;0.70;0.70;;;1.30;99.90;;;;;;4325707;32;20418;-75
2022/11/18 08:54:05;;;;;;;3.53;1.08;;;1.30;99.90;;;;;;4340126;32;20465;-75
2022/11/18 08:56:30;;;;;;;0.60;0.60;;;1.30;99.90;;;;;;4347140;32;20407;-75
2022/11/18 08:58:56;;;;;;;26.45;2.03;;;1.30;99.90;;;;;;4351016;32;20163;-75
2022/11/18 09:01:22;;;;;;;0.75;0.75;;;1.40;99.90;;;;;;4337185;32;20101;-75
2022/11/18 09:03:48;;;;;;;0.90;0.90;;;1.30;99.90;;;;;;4332826;32;20206;-75
2022/11/18 09:06:16;;;;;;;0.70;0.70;;;1.30;99.90;;;;;;4336375;32;20194;-76
2022/11/18 09:08:44;;;;;;;1.25;1.00;;;1.30;99.90;;;;;;4343454;32;20999;-75
2022/11/18 09:11:13;;;;;;;0.60;0.60;;;1.20;99.90;;;;;;4335657;32;20097;-76
2022/11/18 09:13:38;;;;;;;1.23;1.12;;;1.20;99.90;;;;;;4345279;32;20220;-76
2022/11/18 09:16:05;;;;;;;0.50;0.50;;;1.20;99.90;;;;;;4346938;32;20297;-76
2022/11/18 09:18:31;;;;;;;0.73;0.73;;;1.10;99.90;;;;;;4344614;32;20254;-76
2022/11/18 09:21:00;;;;;;;0.60;0.60;;;1.10;99.90;;;;;;4341257;32;20066;-76
2022/11/18 09:23:26;;;;;;;0.77;0.77;;;1.20;99.90;;;;;;4346659;32;20450;-76
2022/11/18 09:25:58;;;;;;;0.50;0.50;;;1.20;99.90;;;;;;4342956;32;20097;-75
2022/11/18 09:28:24;;;;;;;0.98;0.98;;;1.10;99.90;;;;;;4347025;32;20636;-75
2022/11/18 09:30:50;;;;;;;0.70;0.70;;;1.00;99.90;;;;;;4339942;32;20094;-75
2022/11/18 09:33:16;;;;;;;0.50;0.50;;;0.90;99.90;;;;;;4343440;32;20113;-75
2022/11/18 09:35:42;;;;;;;0.55;0.55;;;0.90;99.90;;;;;;4340081;32;20387;-75
2022/11/18 09:38:08;;;;;;;1.23;1.17;;;1.00;99.90;;;;;;4352530;32;20848;-76
2022/11/18 09:40:44;;;;;;;0.95;0.95;;;1.00;99.90;;;;;;4355473;32;20118;-75
2022/11/18 09:43:21;;;;;;;0.50;0.50;;;1.10;99.90;;;;;;4349979;32;20603;-75
2022/11/18 09:45:54;;;;;;;0.60;0.60;;;1.10;99.90;;;;;;4342527;32;20558;-76
2022/11/18 09:49:21;;;;;;;1.98;1.20;;;1.10;99.90;;;;;;4345571;32;20340;-75
2022/11/18 09:51:10;;;;;;;0.90;0.90;;;1.00;99.90;;;;;;4340990;32;20624;-76
2022/11/18 09:53:40;;;;;;;1.55;1.30;;;1.00;99.90;;;;;;4359189;32;20246;-75
2022/11/18 09:56:12;;;;;;;2.30;1.73;;;1.00;99.90;;;;;;4358525;32;20094;-76
2022/11/18 09:58:38;;;;;;;0.60;0.60;;;1.10;99.90;;;;;;4355153;32;20202;-75
2022/11/18 10:01:11;;;;;;;1.02;1.02;;;1.00;99.90;;;;;;4349140;32;20786;-75
2022/11/18 10:03:37;;;;;;;0.73;0.73;;;1.10;99.90;;;;;;4331043;32;20747;-75
2022/11/18 10:06:09;;;;;;;2.65;2.25;;;1.00;99.90;;;;;;4337328;32;20160;-75
2022/11/18 10:08:59;;;;;;;0.40;0.40;;;1.00;99.90;;;;;;4343667;32;22077;-75
2022/11/18 10:11:33;;;;;;;0.98;0.98;;;1.10;99.90;;;;;;4330122;32;20198;-77
2022/11/18 10:14:39;;;;;;;2.37;2.08;;;1.10;99.90;;;;;;4345286;32;20127;-75
2022/11/18 10:17:44;;;;;;;0.68;0.68;;;1.10;99.90;;;;;;4316596;32;20093;-76
2022/11/18 10:20:51;;;;;;;2.17;1.75;;;1.10;99.90;;;;;;4319138;32;21244;-75
2022/11/18 10:23:23;;;;;;;5.40;1.35;;;1.10;99.90;;;;;;4300061;32;20102;-75
2022/11/18 10:25:48;;;;;;;0.95;0.95;;;1.10;99.90;;;;;;4328396;32;20637;-78
2022/11/18 10:28:24;;;;;;;0.65;0.65;;;1.10;99.90;;;;;;4335503;32;20646;-76
2022/11/18 10:30:50;;;;;;;1.17;1.02;;;1.10;99.90;;;;;;4341097;32;20445;-75
2022/11/18 10:33:19;;;;;;;2.00;1.80;;;1.10;99.90;;;;;;4334138;32;20346;-75
2022/11/18 10:35:45;;;;;;;2.12;0.80;;;1.10;99.90;;;;;;4323653;32;20768;-75
2022/11/18 10:38:16;;;;;;;1.67;1.58;;;1.10;99.90;;;;;;4342856;32;20102;-76
2022/11/18 10:40:55;;;;;;;1.60;1.37;;;1.10;99.90;;;;;;4342903;32;20148;-75
2022/11/18 10:43:46;;;;;;;2.28;1.05;;;1.10;99.90;;;;;;4346335;32;20101;-76
2022/11/18 10:46:25;;;;;;;0.50;0.50;;;1.20;99.90;;;;;;4335999;32;20891;-75
2022/11/18 10:49:10;;;;;;;1.02;1.02;;;1.20;99.90;;;;;;4338936;32;20417;-74
2022/11/18 10:51:41;;;;;;;0.60;0.60;;;1.20;99.90;;;;;;4318851;32;20110;-75
2022/11/18 10:54:46;;;;;;;0.40;0.40;;;1.10;99.90;;;;;;4334278;32;20589;-75
2022/11/18 10:57:20;;;;;;;0.47;0.47;;;1.10;99.90;;;;;;4336727;32;20118;-64
2022/11/18 10:59:49;;;;;;;0.40;0.40;;;1.00;99.90;;;;;;4322365;32;20090;-64
2022/11/18 11:02:30;;;;;;;0.50;0.50;;;1.10;99.90;;;;;;4332270;32;20337;-63
2022/11/18 11:05:00;;;;;;;0.50;0.50;;;1.10;99.90;;;;;;4327066;32;21364;-63
2022/11/18 11:07:31;;;;;;;0.62;0.62;;;1.10;99.90;;;;;;4342571;32;20122;-62
2022/11/18 11:10:01;;;;;;;1.17;1.12;;;1.10;99.90;;;;;;4328524;32;20223;-64
2022/11/18 11:12:29;;;;;;;1.03;0.77;;;1.10;99.90;;;;;;4331298;32;20122;-63
2022/11/18 11:14:59;;;;;;;0.60;0.60;;;1.10;99.90;;;;;;4349114;32;20114;-62
2022/11/18 11:17:32;;;;;;;0.60;0.60;;;1.10;99.90;;;;;;4339920;32;21024;-63
2022/11/18 11:20:19;;;;;;;0.40;0.40;;;1.10;99.90;;;;;;4347229;32;20263;-65
2022/11/18 11:22:45;;;;;;;0.40;0.40;;;1.20;99.90;;;;;;4323679;32;20176;-65
2022/11/18 11:25:15;;;;;;;0.40;0.40;;;1.20;99.90;;;;;;4354976;32;20123;-63
2022/11/18 11:27:48;;;;;;;0.52;0.52;;;1.20;99.90;;;;;;4346777;32;20195;-64
2022/11/18 11:30:17;;;;;;;0.60;0.60;;;1.20;99.90;;;;;;4342581;32;20106;-63
2022/11/18 11:33:08;;;;;;;0.68;0.68;;;1.20;99.90;;;;;;4351152;32;20107;-62
2022/11/18 11:35:48;;;;;;;0.55;0.55;;;1.20;99.90;;;;;;4341807;32;20938;-63
2022/11/18 11:38:29;;;;;;;0.57;0.57;;;1.20;99.90;;;;;;4368038;32;21226;-63
2022/11/18 11:41:14;;;;;;;0.70;0.70;;;1.30;99.90;;;;;;4364427;32;20117;-63
2022/11/18 11:44:19;;;;;;;0.55;0.55;;;1.30;99.90;;;;;;4349113;32;20878;-63
2022/11/18 11:48:12;;;;;;;0.45;0.45;;;1.30;99.90;;;;;;4341622;32;20310;-63
2022/11/18 11:50:25;;;;;;;0.50;0.50;;;1.30;99.90;;;;;;4316244;32;21446;-62
2022/11/18 11:53:16;;;;;;;0.90;0.68;;;1.30;99.90;;;;;;4317785;32;20281;-62
2022/11/18 11:55:48;;;;;;;;;;;1.30;99.90;;;;;;4327838;32;20111;-62
2022/11/18 11:58:36;;;;;;;0.50;0.50;;;1.40;99.90;;;;;;4327904;32;20208;-62
2022/11/18 12:01:27;;;;;;;1.05;0.95;;;1.40;99.90;;;;;;4333029;32;20150;-62
2022/11/18 12:04:14;;;;;;;0.50;0.50;;;1.50;99.90;;;;;;4323524;32;20275;-63
2022/11/18 12:06:41;;;;;;;0.88;0.88;;;1.60;99.90;;;;;;4344253;32;20170;-62
2022/11/18 12:09:27;;;;;;;0.50;0.50;;;1.50;99.90;;;;;;4345393;32;20374;-62
2022/11/18 12:11:58;;;;;;;0.65;0.65;;;1.40;99.90;;;;;;4342165;32;20570;-64
2022/11/18 12:14:34;;;;;;;0.52;0.52;;;1.40;99.90;;;;;;4337299;32;20090;-64
2022/11/18 12:17:13;;;;;;;0.45;0.45;;;1.40;99.90;;;;;;4337541;32;21118;-64
2022/11/18 12:19:38;;;;;;;0.50;0.50;;;1.40;99.90;;;;;;4334721;32;20362;-64
2022/11/18 12:22:05;;;;;;;0.60;0.60;;;1.40;99.90;;;;;;4330862;32;20305;-64
2022/11/18 12:24:35;;;;;;;0.50;0.50;;;1.40;99.90;;;;;;4336977;32;20082;-64
2022/11/18 12:27:30;;;;;;;0.40;0.40;;;1.40;99.90;;;;;;4349973;32;20106;-64
2022/11/18 12:30:00;;;;;;;0.40;0.40;;;1.40;99.90;;;;;;4333156;32;20300;-64
2022/11/18 12:32:30;;;;;;;0.60;0.60;;;1.50;99.90;;;;;;4336339;32;20185;-65
2022/11/18 12:34:59;;;;;;;0.60;0.60;;;1.50;99.90;;;;;;4327236;32;20198;-64
2022/11/18 12:37:27;;;;;;;1.65;1.15;;;1.50;99.90;;;;;;4343848;32;20557;-65
2022/11/18 12:39:57;;;;;;;0.90;0.88;;;1.40;99.90;;;;;;4340084;32;20075;-64
2022/11/18 12:43:45;;;;;;;0.55;0.55;;;1.40;99.90;;;;;;4333686;32;20114;-64
2022/11/18 12:45:48;;;;;;;0.40;0.40;;;1.50;99.90;;;;;;4319615;32;20414;-62
2022/11/18 12:48:32;;;;;;;0.50;0.50;;;1.50;99.90;;;;;;4318743;32;20877;-62
2022/11/18 12:51:00;;;;;;;0.45;0.45;;;1.50;99.90;;;;;;4302514;32;20598;-63
2022/11/18 12:53:32;;;;;;;0.47;0.47;;;1.50;99.90;;;;;;4302002;32;20997;-62
2022/11/18 12:55:57;;;;;;;0.73;0.73;;;1.60;99.90;;;;;;4325697;32;20976;-62
2022/11/18 12:58:25;;;;;;;0.82;0.82;;;1.60;99.90;;;;;;4321410;32;20190;-62
2022/11/18 13:01:11;;;;;;;0.90;0.82;;;1.50;99.90;;;;;;4317542;32;20087;-62
2022/11/18 13:03:36;;;;;;;0.60;0.60;;;1.50;99.90;;;;;;4316761;32;20188;-63
2022/11/18 13:06:27;;;;;;;13.55;3.05;;;1.50;99.90;;;;;;4314823;32;21466;-63
2022/11/18 13:08:57;;;;;;;0.50;0.50;;;1.50;99.90;;;;;;4320040;32;20661;-63
2022/11/18 13:11:56;;;;;;;0.40;0.40;;;1.50;99.90;;;;;;4324705;32;20153;-62
2022/11/18 13:18:00;;;;;;;0.50;0.50;;;1.60;99.90;;;;;;4324716;32;20559;-60
2022/11/18 13:20:29;;;;;;;0.62;0.60;;;1.70;99.90;;;;;;4306945;32;20123;-63
2022/11/18 13:23:56;;;;;;;;;;;1.60;99.90;;;;;;4302321;32;20328;-62
2022/11/18 13:25:44;;;;;;;0.40;0.40;;;1.60;99.90;;;;;;4322777;32;20639;-63